createdAt,value
2022-10-22T00:01:48.328Z,6.97
2022-10-22T00:04:35.693Z,7.20
2022-10-22T00:07:21.598Z,1.58
2022-10-22T00:10:08.433Z,8.82
2022-10-22T00:12:54.473Z,2.80
2022-10-22T00:15:40.724Z,2.22
2022-10-22T00:18:27.147Z,8.02
2022-10-22T00:21:13.484Z,7.63
2022-10-22T00:23:59.683Z,2.97
2022-10-22T00:26:46.152Z,7.25
2022-10-22T00:29:51.308Z,4.50
2022-10-22T00:32:37.675Z,1.67
2022-10-22T00:35:23.819Z,8.75
2022-10-22T00:38:09.979Z,2.35
2022-10-22T00:40:56.648Z,5.07
2022-10-22T00:44:00.194Z,3.72
2022-10-22T00:46:46.020Z,7.18
2022-10-22T00:49:32.339Z,3.03
2022-10-22T00:52:18.517Z,2.75
2022-10-22T00:55:05.149Z,7.43
2022-10-22T00:57:52.257Z,5.88
2022-10-22T01:00:38.626Z,2.88
2022-10-22T01:03:24.710Z,8.15
2022-10-22T01:06:12.877Z,5.60
2022-10-22T01:09:02.505Z,5.85
2022-10-22T01:11:53.790Z,4.40
2022-10-22T01:14:46.341Z,2.03
2022-10-22T01:17:38.611Z,3.65
2022-10-22T01:20:28.571Z,8.85
2022-10-22T01:23:14.698Z,3.60
2022-10-22T01:26:06.584Z,5.65
2022-10-22T01:28:57.128Z,8.13
2022-10-22T01:31:45.815Z,4.88
2022-10-22T01:34:32.541Z,1.75
2022-10-22T01:37:20.170Z,7.38
2022-10-22T01:40:09.213Z,4.38
2022-10-22T01:43:13.966Z,8.00
2022-10-22T01:46:02.588Z,3.38
2022-10-22T01:49:07.408Z,2.00
2022-10-22T01:52:03.197Z,7.80
2022-10-22T01:54:49.248Z,2.60
2022-10-22T01:57:42.121Z,6.82
2022-10-22T02:00:28.717Z,8.55
2022-10-22T02:03:21.268Z,2.05
2022-10-22T02:06:14.253Z,6.40
2022-10-22T02:09:20.254Z,3.42
2022-10-22T02:12:07.106Z,8.48
2022-10-22T02:14:54.038Z,7.90
2022-10-22T02:17:40.959Z,3.58
2022-10-22T02:20:28.742Z,7.03
2022-10-22T02:23:15.181Z,7.32
2022-10-22T02:26:09.647Z,4.70
2022-10-22T02:29:02.529Z,3.63
2022-10-22T02:31:49.191Z,7.45
2022-10-22T02:34:35.286Z,3.15
2022-10-22T02:37:22.343Z,2.25
2022-10-22T02:40:09.423Z,7.25
2022-10-22T02:42:55.957Z,4.85
2022-10-22T02:45:42.287Z,3.92
2022-10-22T02:48:28.585Z,1.55
2022-10-22T02:51:14.944Z,8.00
2022-10-22T02:54:01.083Z,6.88
2022-10-22T02:56:47.427Z,4.30
2022-10-22T02:59:33.481Z,5.13
2022-10-22T03:02:19.645Z,8.20
2022-10-22T03:05:06.154Z,6.55
2022-10-22T03:07:52.060Z,6.80
2022-10-22T03:10:38.377Z,3.72
2022-10-22T03:13:24.729Z,7.40
2022-10-22T03:16:10.841Z,3.67
2022-10-22T03:18:57.295Z,2.17
2022-10-22T03:21:49.898Z,7.68
2022-10-22T03:24:38.657Z,2.15
2022-10-22T03:27:25.266Z,9.07
2022-10-22T03:30:17.836Z,6.90
2022-10-22T03:33:03.570Z,3.42
2022-10-22T03:35:50.020Z,3.60
2022-10-22T03:38:37.611Z,2.58
2022-10-22T03:41:23.884Z,7.82
2022-10-22T03:44:10.541Z,2.15
2022-10-22T03:46:58.783Z,2.47
2022-10-22T03:49:47.952Z,3.57
2022-10-22T03:52:38.358Z,3.95
2022-10-22T03:55:24.872Z,2.17
2022-10-22T03:58:10.966Z,8.23
2022-10-22T04:00:57.075Z,2.45
2022-10-22T04:03:43.326Z,7.05
2022-10-22T04:06:29.942Z,8.18
2022-10-22T04:09:16.169Z,2.40
2022-10-22T04:12:02.440Z,7.32
2022-10-22T04:14:48.531Z,8.15
2022-10-22T04:17:35.731Z,3.83
2022-10-22T04:20:22.168Z,7.40
2022-10-22T04:23:08.343Z,2.25
2022-10-22T04:25:58.787Z,4.47
2022-10-22T04:28:45.135Z,7.43
2022-10-22T04:31:31.242Z,3.25
2022-10-22T04:34:17.472Z,2.22
2022-10-22T04:37:04.972Z,7.25
2022-10-22T04:39:50.937Z,7.10
2022-10-22T04:42:37.141Z,3.63
2022-10-22T04:45:23.330Z,7.00
2022-10-22T04:48:09.694Z,7.47
2022-10-22T04:50:57.138Z,3.03
2022-10-22T04:53:43.832Z,8.40
2022-10-22T04:56:30.709Z,2.72
2022-10-22T04:59:16.648Z,4.45
2022-10-22T05:02:03.067Z,2.38
2022-10-22T05:04:49.236Z,7.38
2022-10-22T05:07:35.334Z,7.57
2022-10-22T05:10:21.750Z,7.55
2022-10-22T05:13:07.905Z,1.77
2022-10-22T05:15:54.422Z,4.47
2022-10-22T05:18:41.999Z,7.95
2022-10-22T05:21:46.677Z,3.00
2022-10-22T05:24:33.896Z,5.63
2022-10-22T05:30:10.886Z,2.03
2022-10-22T05:32:56.923Z,7.78
2022-10-22T05:35:46.701Z,3.25
2022-10-22T05:38:34.428Z,5.95
2022-10-22T05:41:22.420Z,14.30
2022-10-22T05:44:11.112Z,5.88
2022-10-22T05:46:57.327Z,8.07
2022-10-22T05:49:43.626Z,5.43
2022-10-22T05:52:29.712Z,8.63
2022-10-22T05:55:15.920Z,3.33
2022-10-22T05:58:02.261Z,8.23
2022-10-22T06:00:48.604Z,2.53
2022-10-22T06:03:35.344Z,8.93
2022-10-22T06:06:26.011Z,6.28
2022-10-22T06:09:12.012Z,9.20
2022-10-22T06:11:58.581Z,9.98
2022-10-22T06:14:44.826Z,7.63
2022-10-22T06:17:31.189Z,8.18
2022-10-22T06:20:17.766Z,4.00
2022-10-22T06:23:04.236Z,9.15
2022-10-22T06:25:57.436Z,7.28
2022-10-22T06:28:43.778Z,8.10
2022-10-22T06:31:33.492Z,8.63
2022-10-22T06:34:19.718Z,9.23
2022-10-22T06:37:05.722Z,7.93
2022-10-22T06:39:51.845Z,7.32
2022-10-22T06:42:38.250Z,7.78
2022-10-22T06:45:25.012Z,7.93
2022-10-22T06:48:11.180Z,8.90
2022-10-22T06:51:01.363Z,3.38
2022-10-22T06:53:47.605Z,7.47
2022-10-22T06:56:33.727Z,2.50
2022-10-22T06:59:19.814Z,4.57
2022-10-22T07:02:06.357Z,5.68
2022-10-22T07:04:52.771Z,7.35
2022-10-22T07:07:38.773Z,6.70
2022-10-22T07:10:29.869Z,7.15
2022-10-22T07:13:17.188Z,7.15
2022-10-22T07:16:03.999Z,6.85
2022-10-22T07:18:50.677Z,6.28
2022-10-22T07:21:37.589Z,6.38
2022-10-22T07:24:23.805Z,7.60
2022-10-22T07:27:11.049Z,6.20
2022-10-22T07:30:01.112Z,6.93
2022-10-22T07:32:47.050Z,5.50
2022-10-22T07:35:34.507Z,6.10
2022-10-22T07:38:20.352Z,6.05
2022-10-22T07:41:25.807Z,6.38
2022-10-22T07:44:12.347Z,6.38
2022-10-22T07:46:58.718Z,6.68
2022-10-22T07:49:44.962Z,6.10
2022-10-22T07:52:31.136Z,5.95
2022-10-22T07:55:36.078Z,5.85
2022-10-22T07:58:22.181Z,6.70
2022-10-22T08:01:08.769Z,5.65
2022-10-22T08:03:54.897Z,6.40
2022-10-22T08:06:45.740Z,6.53
2022-10-22T08:09:33.701Z,6.45
2022-10-22T08:12:20.554Z,6.32
2022-10-22T08:15:06.915Z,6.25
2022-10-22T08:17:53.047Z,6.18
2022-10-22T08:20:39.682Z,5.55
2022-10-22T08:23:27.693Z,5.35
2022-10-22T08:26:14.779Z,5.35
2022-10-22T08:29:01.036Z,5.38
2022-10-22T08:31:47.210Z,5.25
2022-10-22T08:34:33.161Z,5.63
2022-10-22T08:37:19.494Z,5.45
2022-10-22T08:40:07.973Z,6.88
2022-10-22T08:43:03.820Z,8.90
2022-10-22T08:46:09.337Z,6.72
2022-10-22T08:49:00.625Z,4.45
2022-10-22T08:51:50.313Z,4.60
2022-10-22T08:54:47.095Z,5.10
2022-10-22T08:57:39.567Z,3.85
2022-10-22T09:00:31.889Z,4.47
2022-10-22T09:03:44.759Z,4.95
2022-10-22T09:06:32.051Z,4.88
2022-10-22T09:09:18.825Z,3.75
2022-10-22T09:12:05.583Z,5.00
2022-10-22T09:14:51.940Z,5.15
2022-10-22T09:17:56.811Z,9.88
2022-10-22T09:20:58.719Z,4.53
2022-10-22T09:23:55.189Z,3.85
2022-10-22T09:26:41.877Z,4.40
2022-10-22T09:29:32.549Z,4.80
2022-10-22T09:32:19.171Z,4.82
2022-10-22T09:35:09.835Z,3.50
2022-10-22T09:37:56.749Z,3.78
2022-10-22T09:40:43.856Z,3.90
2022-10-22T09:43:30.388Z,4.97
2022-10-22T09:46:18.313Z,4.55
2022-10-22T09:49:11.029Z,3.38
2022-10-22T09:51:58.131Z,4.00
2022-10-22T09:54:44.323Z,3.97
2022-10-22T09:57:30.589Z,3.67
2022-10-22T10:00:19.448Z,4.07
2022-10-22T10:03:06.101Z,3.35
2022-10-22T10:05:54.028Z,2.88
2022-10-22T10:08:40.286Z,2.88
2022-10-22T10:11:35.200Z,4.03
2022-10-22T10:14:55.274Z,3.05
2022-10-22T10:17:54.219Z,3.67
2022-10-22T10:21:18.102Z,3.80
2022-10-22T10:24:10.137Z,6.75
2022-10-22T10:27:05.452Z,8.88
2022-10-22T10:30:00.880Z,5.18
2022-10-22T10:32:50.150Z,5.30
2022-10-22T10:35:46.644Z,2.97
2022-10-22T10:38:33.107Z,3.40
2022-10-22T10:41:25.385Z,3.58
2022-10-22T10:44:26.764Z,4.53
2022-10-22T10:47:19.044Z,5.07
2022-10-22T10:50:16.741Z,3.72
2022-10-22T10:53:15.243Z,6.55
2022-10-22T10:56:14.932Z,5.22
2022-10-22T10:59:25.859Z,3.83
2022-10-22T11:02:30.285Z,4.55
2022-10-22T11:05:16.806Z,4.32
2022-10-22T11:08:19.197Z,24.75
2022-10-22T11:14:07.619Z,9.57
2022-10-22T11:16:53.577Z,6.60
2022-10-22T11:19:51.532Z,2.63
2022-10-22T11:23:18.070Z,3.20
2022-10-22T11:26:05.774Z,3.38
2022-10-22T11:28:53.852Z,2.50
2022-10-22T11:31:40.273Z,2.72
2022-10-22T11:34:44.245Z,2.90
2022-10-22T11:37:34.699Z,2.25
2022-10-22T11:40:22.273Z,2.10
2022-10-22T11:43:09.656Z,2.50
2022-10-22T11:46:03.098Z,3.08
2022-10-22T11:49:08.040Z,2.65
2022-10-22T11:52:06.250Z,2.25
2022-10-22T11:54:57.879Z,3.17
2022-10-22T11:57:43.838Z,3.20
2022-10-22T12:00:49.770Z,2.80
2022-10-22T12:03:38.076Z,2.40
2022-10-22T12:06:28.035Z,2.53
2022-10-22T12:09:14.219Z,2.30
2022-10-22T12:12:10.729Z,2.08
2022-10-22T12:14:59.800Z,3.05
2022-10-22T12:17:46.029Z,2.75
2022-10-22T12:20:32.688Z,2.85
2022-10-22T12:23:18.950Z,2.55
2022-10-22T12:26:05.762Z,2.40
2022-10-22T12:29:11.975Z,3.08
2022-10-22T12:32:02.298Z,2.67
2022-10-22T12:37:37.275Z,3.03
2022-10-22T12:40:27.946Z,3.45
2022-10-22T12:43:16.305Z,3.42
2022-10-22T12:46:02.212Z,3.28
2022-10-22T12:48:48.509Z,3.33
2022-10-22T12:51:34.956Z,2.60
2022-10-22T12:54:28.552Z,4.03
2022-10-22T12:57:16.283Z,3.45
2022-10-22T13:00:02.373Z,3.15
2022-10-22T13:02:53.927Z,3.80
2022-10-22T13:05:40.242Z,3.88
2022-10-22T13:08:28.291Z,4.50
2022-10-22T13:11:20.524Z,4.63
2022-10-22T13:14:18.198Z,4.82
2022-10-22T13:17:10.504Z,4.20
2022-10-22T13:19:56.836Z,4.13
2022-10-22T13:22:58.509Z,3.33
2022-10-22T13:25:44.386Z,3.97
2022-10-22T13:28:33.615Z,4.57
2022-10-22T13:31:22.925Z,5.47
2022-10-22T13:34:17.272Z,6.70
2022-10-22T13:37:03.969Z,4.93
2022-10-22T13:39:49.960Z,6.85
2022-10-22T13:42:36.448Z,4.82
2022-10-22T13:45:22.713Z,4.88
2022-10-22T13:48:12.981Z,9.10
2022-10-22T13:50:59.472Z,4.65
2022-10-22T13:53:46.867Z,7.07
2022-10-22T13:56:33.016Z,8.65
2022-10-22T13:59:22.797Z,11.77
2022-10-22T14:02:12.371Z,11.88
2022-10-22T14:05:03.337Z,6.82
2022-10-22T14:07:49.454Z,6.00
2022-10-22T14:10:35.426Z,8.32
2022-10-22T14:13:21.525Z,7.70
2022-10-22T14:16:08.698Z,15.48
2022-10-22T14:19:17.801Z,10.80
2022-10-22T14:22:03.661Z,7.93
2022-10-22T14:24:52.058Z,7.32
2022-10-22T14:27:38.565Z,4.70
2022-10-22T14:30:25.712Z,6.47
2022-10-22T14:33:16.059Z,5.55
2022-10-22T14:36:02.331Z,6.35
2022-10-22T14:38:48.867Z,5.03
2022-10-22T14:41:34.661Z,5.35
2022-10-22T14:44:21.023Z,5.53
2022-10-22T14:47:07.084Z,5.38
2022-10-22T14:50:11.837Z,5.18
2022-10-22T14:52:59.961Z,6.45
2022-10-22T14:55:47.538Z,6.45
2022-10-22T14:58:33.477Z,8.98
2022-10-22T15:01:19.794Z,7.07
2022-10-22T15:04:27.066Z,6.45
2022-10-22T15:07:16.882Z,5.32
2022-10-22T15:12:50.469Z,6.63
2022-10-22T15:15:39.789Z,8.10
2022-10-22T15:18:27.020Z,5.05
2022-10-22T15:21:31.874Z,4.43
2022-10-22T15:24:18.887Z,10.27
2022-10-22T15:27:04.776Z,9.05
2022-10-22T15:29:51.090Z,10.63
2022-10-22T15:32:37.158Z,12.25
2022-10-22T15:35:23.385Z,9.30
2022-10-22T15:38:10.097Z,7.47
2022-10-22T15:41:05.265Z,8.07
2022-10-22T15:43:53.030Z,8.88
2022-10-22T15:46:39.347Z,9.93
2022-10-22T15:49:26.283Z,9.55
2022-10-22T15:52:12.658Z,8.68
2022-10-22T15:55:17.205Z,9.43
2022-10-22T15:58:04.300Z,9.10
2022-10-22T16:00:51.156Z,9.25
2022-10-22T16:03:37.952Z,8.02
2022-10-22T16:06:24.356Z,8.13
2022-10-22T16:09:12.472Z,6.75
2022-10-22T16:11:58.531Z,4.72
2022-10-22T16:14:44.813Z,4.45
2022-10-22T16:17:31.296Z,4.22
2022-10-22T16:20:17.802Z,6.15
2022-10-22T16:23:04.156Z,6.00
2022-10-22T16:25:50.482Z,8.90
2022-10-22T16:28:36.818Z,12.32
2022-10-22T16:31:22.824Z,11.45
2022-10-22T16:34:09.271Z,9.88
2022-10-22T16:36:57.083Z,8.65
2022-10-22T16:39:43.186Z,22.52
2022-10-22T16:42:29.640Z,22.13
2022-10-22T16:45:16.721Z,12.10
2022-10-22T16:48:02.728Z,12.07
2022-10-22T16:50:48.895Z,8.63
2022-10-22T16:56:26.473Z,6.97
2022-10-22T16:59:12.984Z,6.85
2022-10-22T17:01:59.069Z,6.57
2022-10-22T17:04:45.363Z,6.72
2022-10-22T17:07:31.612Z,5.88
2022-10-22T17:10:19.860Z,5.60
2022-10-22T17:13:06.475Z,5.50
2022-10-22T17:15:52.616Z,6.20
2022-10-22T17:18:40.469Z,10.98
2022-10-22T17:21:26.510Z,32.55
2022-10-22T17:24:12.836Z,27.05
2022-10-22T17:26:58.974Z,25.10
2022-10-22T17:29:45.089Z,34.20
2022-10-22T17:32:31.408Z,25.55
2022-10-22T17:35:17.673Z,15.18
2022-10-22T17:38:03.855Z,27.73
2022-10-22T17:40:50.632Z,68.43
2022-10-22T17:43:37.536Z,25.65
2022-10-22T17:46:25.153Z,30.50
2022-10-22T17:49:19.060Z,28.48
2022-10-22T17:52:05.373Z,28.80
2022-10-22T17:54:53.296Z,22.30
2022-10-22T17:57:39.386Z,17.45
2022-10-22T18:00:25.997Z,12.38
2022-10-22T18:03:12.396Z,9.30
2022-10-22T18:06:05.540Z,7.95
2022-10-22T18:08:51.603Z,6.95
2022-10-22T18:11:38.956Z,7.60
2022-10-22T18:14:25.548Z,7.43
2022-10-22T18:17:12.338Z,6.28
2022-10-22T18:19:58.660Z,6.32
2022-10-22T18:22:45.511Z,7.45
2022-10-22T18:25:31.954Z,6.70
2022-10-22T18:28:19.332Z,7.13
2022-10-22T18:31:09.680Z,5.45
2022-10-22T18:33:56.814Z,5.82
2022-10-22T18:36:42.783Z,5.00
2022-10-22T18:39:29.098Z,5.47
2022-10-22T18:45:01.547Z,5.85
2022-10-22T18:47:47.944Z,6.10
2022-10-22T18:50:33.949Z,6.28
2022-10-22T18:53:20.269Z,5.30
2022-10-22T18:56:09.842Z,5.72
2022-10-22T18:58:56.503Z,5.60
2022-10-22T19:01:43.458Z,5.57
2022-10-22T19:04:37.247Z,6.82
2022-10-22T19:07:23.589Z,5.05
2022-10-22T19:10:10.091Z,8.82
2022-10-22T19:12:57.567Z,8.40
2022-10-22T19:15:44.428Z,9.10
2022-10-22T19:18:30.463Z,25.65
2022-10-22T19:21:16.861Z,24.20
2022-10-22T19:24:22.083Z,20.77
2022-10-22T19:27:08.679Z,13.50
2022-10-22T19:29:54.743Z,10.55
2022-10-22T19:32:41.172Z,13.02
2022-10-22T19:35:30.593Z,15.80
2022-10-22T19:38:16.937Z,16.67
2022-10-22T19:41:03.325Z,20.33
2022-10-22T19:43:50.234Z,21.75
2022-10-22T19:46:36.654Z,18.25
2022-10-22T19:49:42.791Z,16.35
2022-10-22T19:52:28.967Z,13.98
2022-10-22T19:55:15.197Z,13.27
2022-10-22T19:58:04.261Z,10.60
2022-10-22T20:00:51.926Z,9.57
2022-10-22T20:03:39.948Z,8.10
2022-10-22T20:06:27.548Z,7.88
2022-10-22T20:09:14.105Z,7.72
2022-10-22T20:12:01.969Z,6.05
2022-10-22T20:14:49.355Z,7.10
2022-10-22T20:17:35.827Z,9.75
2022-10-22T20:20:26.609Z,6.95
2022-10-22T20:23:13.523Z,10.20
2022-10-22T20:25:59.765Z,10.50
2022-10-22T20:28:46.524Z,7.55
2022-10-22T20:31:33.281Z,14.63
2022-10-22T20:34:20.805Z,13.50
2022-10-22T20:37:07.302Z,12.15
2022-10-22T20:39:54.534Z,12.55
2022-10-22T20:42:45.355Z,11.32
2022-10-22T20:45:35.174Z,8.88
2022-10-22T20:48:21.872Z,7.90
2022-10-22T20:51:08.420Z,8.35
2022-10-22T20:53:54.612Z,9.63
2022-10-22T20:56:40.877Z,10.90
2022-10-22T20:59:32.899Z,20.48
2022-10-22T21:02:19.459Z,19.70
2022-10-22T21:05:06.392Z,18.73
2022-10-22T21:07:52.530Z,18.65
2022-10-22T21:10:38.611Z,29.02
2022-10-22T21:13:25.077Z,18.88
2022-10-22T21:16:12.924Z,14.20
2022-10-22T21:18:59.472Z,19.30
2022-10-22T21:21:45.496Z,21.33
2022-10-22T21:24:31.702Z,29.05
2022-10-22T21:27:17.850Z,19.88
2022-10-22T21:30:04.441Z,31.15
2022-10-22T21:32:51.862Z,26.90
2022-10-22T21:35:57.120Z,33.63
2022-10-22T21:38:43.153Z,34.53
2022-10-22T21:41:29.765Z,34.28
2022-10-22T21:44:16.435Z,30.52
2022-10-22T21:47:02.841Z,27.52
2022-10-22T21:49:49.524Z,30.45
2022-10-22T21:52:36.056Z,28.98
2022-10-22T21:55:22.314Z,28.02
2022-10-22T21:58:08.972Z,29.42
2022-10-22T22:00:57.184Z,26.67
2022-10-22T22:03:45.321Z,24.15
2022-10-22T22:06:33.433Z,19.10
2022-10-22T22:09:23.691Z,11.10
2022-10-22T22:12:12.783Z,7.32
2022-10-22T22:14:59.707Z,6.78
2022-10-22T22:17:45.481Z,5.70
2022-10-22T22:20:32.700Z,5.05
2022-10-22T22:23:19.810Z,6.68
2022-10-22T22:26:06.341Z,5.22
2022-10-22T22:28:52.456Z,7.05
2022-10-22T22:31:38.786Z,6.32
2022-10-22T22:34:25.596Z,6.97
2022-10-22T22:37:12.548Z,6.72
2022-10-22T22:39:58.628Z,7.35
2022-10-22T22:42:44.426Z,7.57
2022-10-22T22:45:30.793Z,8.68
2022-10-22T22:48:16.871Z,10.55
2022-10-22T22:51:03.725Z,10.95
2022-10-22T22:53:50.021Z,10.80
2022-10-22T22:56:39.730Z,9.68
2022-10-22T22:59:25.643Z,10.32
2022-10-22T23:02:15.063Z,13.63
2022-10-22T23:05:01.096Z,11.55
2022-10-22T23:07:47.654Z,14.38
2022-10-22T23:10:36.815Z,19.00
2022-10-22T23:13:26.375Z,15.02
2022-10-22T23:16:17.219Z,16.60
2022-10-22T23:19:04.483Z,15.63
2022-10-22T23:21:54.369Z,13.40
2022-10-22T23:24:40.324Z,12.93
2022-10-22T23:27:26.739Z,18.00
2022-10-22T23:30:13.318Z,15.48
2022-10-22T23:32:59.216Z,15.88
2022-10-22T23:35:45.711Z,16.10
2022-10-22T23:38:32.553Z,16.02
2022-10-22T23:41:18.701Z,15.40
2022-10-22T23:44:05.848Z,11.13
2022-10-22T23:46:51.866Z,9.50
2022-10-22T23:49:37.917Z,9.05
2022-10-22T23:52:24.238Z,8.52
2022-10-22T23:55:10.418Z,7.75
2022-10-22T23:57:59.192Z,7.38
